Time;durP1;ratioP1;P1;durP2;ratioP2;P2;SDS_P1;SDS_P2;PMS_P1;PMS_P2;Temp;Humidity;BMP_temperature;BMP_pressure;BME280_temperature;BME280_humidity;BME280_pressure;Samples;Min_cycle;Max_cycle;Signal;HPM_P1;HPM_P2
2021/01/28 00:00:50;;;;;;;76.30;70.60;;;19.80;99.90;;;;;;5092753;28;20091;-67
2021/01/28 00:03:18;;;;;;;78.47;72.45;;;19.80;99.90;;;;;;5092821;28;20107;-49
2021/01/28 00:05:46;;;;;;;75.22;69.43;;;19.70;99.90;;;;;;5092927;28;20012;-46
2021/01/28 00:08:14;;;;;;;75.85;69.88;;;19.70;99.90;;;;;;5092823;28;20024;-48
2021/01/28 00:10:42;;;;;;;75.63;70.05;;;19.60;99.90;;;;;;5091473;28;20081;-52
2021/01/28 00:13:11;;;;;;;73.88;68.35;;;19.60;99.90;;;;;;5092699;28;20488;-51
2021/01/28 00:15:38;;;;;;;74.93;69.22;;;19.60;99.90;;;;;;5092874;28;20067;-52
2021/01/28 00:18:08;;;;;;;79.15;73.10;;;19.60;99.90;;;;;;5092711;28;20028;-47
2021/01/28 00:20:46;;;;;;;78.63;72.27;;;19.60;99.90;;;;;;5092522;28;20024;-51
2021/01/28 00:23:14;;;;;;;79.00;72.80;;;19.70;99.90;;;;;;5092740;28;20605;-47
2021/01/28 00:25:42;;;;;;;80.03;73.55;;;19.80;99.90;;;;;;5092624;28;20161;-50
2021/01/28 00:28:12;;;;;;;77.20;71.20;;;19.80;99.90;;;;;;5092741;28;20395;-49
2021/01/28 00:30:42;;;;;;;74.10;68.47;;;19.80;99.90;;;;;;5092773;28;20031;-50
2021/01/28 00:33:13;;;;;;;75.57;69.80;;;19.90;99.90;;;;;;5092743;28;20027;-49
2021/01/28 00:35:43;;;;;;;69.18;63.97;;;19.90;99.90;;;;;;5092818;28;20043;-50
2021/01/28 00:38:20;;;;;;;65.68;60.38;;;19.80;99.90;;;;;;5092643;28;20379;-50
2021/01/28 00:40:48;;;;;;;65.43;60.38;;;19.70;99.90;;;;;;5092372;28;20123;-47
2021/01/28 00:43:16;;;;;;;67.82;62.97;;;19.70;99.90;;;;;;5092785;28;20048;-50
2021/01/28 00:45:44;;;;;;;66.10;60.67;;;19.70;99.90;;;;;;5092686;28;20436;-54
2021/01/28 00:48:12;;;;;;;65.00;59.80;;;19.70;99.90;;;;;;5093840;28;20099;-44
2021/01/28 00:50:40;;;;;;;65.10;60.08;;;19.70;99.90;;;;;;5096252;28;20024;-52
2021/01/28 00:53:09;;;;;;;62.20;57.42;;;19.70;99.90;;;;;;5096049;28;20107;-47
2021/01/28 00:55:37;;;;;;;63.25;58.10;;;19.70;99.90;;;;;;5096015;28;20511;-48
2021/01/28 00:58:04;;;;;;;61.97;57.20;;;19.70;99.90;;;;;;5096179;28;20024;-50
2021/01/28 01:00:35;;;;;;;62.38;57.78;;;19.60;99.90;;;;;;5094564;28;20123;-48
2021/01/28 01:03:02;;;;;;;;;;;19.60;99.90;;;;;;5096417;28;20024;-53
2021/01/28 01:05:34;;;;;;;66.60;61.60;;;19.60;99.90;;;;;;5095937;28;19910;-53
2021/01/28 01:08:03;;;;;;;65.38;60.97;;;19.70;99.90;;;;;;5095811;28;20073;-56
2021/01/28 01:10:45;;;;;;;66.82;61.22;;;19.90;99.90;;;;;;5094461;28;20024;-53
2021/01/28 01:13:16;;;;;;;64.55;59.85;;;19.80;99.90;;;;;;5095761;28;20020;-51
2021/01/28 01:15:43;;;;;;;;;;;19.90;99.90;;;;;;5096361;28;20020;-52
2021/01/28 01:18:13;;;;;;;59.05;53.97;;;19.90;99.90;;;;;;5095794;28;19904;-53
2021/01/28 01:20:41;;;;;;;58.45;54.17;;;19.90;99.90;;;;;;5095435;28;20118;-50
2021/01/28 01:23:08;;;;;;;61.88;57.17;;;20.00;99.90;;;;;;5095539;28;20435;-54
2021/01/28 01:25:35;;;;;;;58.40;54.10;;;20.10;99.90;;;;;;5095494;28;20016;-49
2021/01/28 01:28:03;;;;;;;54.38;49.80;;;20.20;99.90;;;;;;5095592;28;20099;-53
2021/01/28 01:30:31;;;;;;;47.85;44.22;;;20.20;99.90;;;;;;5095339;28;20024;-53
2021/01/28 01:32:59;;;;;;;48.00;43.92;;;20.20;99.90;;;;;;5095612;28;20413;-53
2021/01/28 01:35:26;;;;;;;48.50;44.72;;;20.30;99.90;;;;;;5095278;28;20027;-53
2021/01/28 01:37:55;;;;;;;44.72;41.63;;;20.40;99.90;;;;;;5095222;28;20036;-50
2021/01/28 01:40:34;;;;;;;42.72;39.28;;;20.50;99.90;;;;;;5094859;28;20127;-49
2021/01/28 01:43:02;;;;;;;37.63;34.17;;;20.60;99.90;;;;;;5095155;28;20016;-52
2021/01/28 01:45:34;;;;;;;38.03;34.70;;;20.80;99.90;;;;;;5095104;28;20028;-52
2021/01/28 01:48:27;;;;;;;39.40;36.28;;;20.90;99.90;;;;;;5095066;28;20016;-51
2021/01/28 01:51:20;;;;;;;37.58;34.65;;;20.90;99.90;;;;;;5095107;28;20039;-51
2021/01/28 01:53:49;;;;;;;37.90;35.10;;;20.90;99.90;;;;;;5095232;28;20536;-51
2021/01/28 01:56:20;;;;;;;33.08;30.38;;;21.10;99.90;;;;;;5094875;28;20024;-47
2021/01/28 01:59:02;;;;;;;33.70;30.65;;;21.20;99.90;;;;;;5094915;28;20020;-49
2021/01/28 02:01:33;;;;;;;33.50;30.85;;;21.30;99.90;;;;;;5094620;28;20484;-52
2021/01/28 02:04:01;;;;;;;29.42;26.90;;;21.40;99.90;;;;;;5094650;28;20024;-45
2021/01/28 02:06:38;;;;;;;30.30;27.15;;;21.50;99.90;;;;;;5094690;28;20020;-48
2021/01/28 02:09:09;;;;;;;32.83;29.67;;;21.50;99.90;;;;;;5094744;28;20087;-50
2021/01/28 02:11:38;;;;;;;35.03;31.98;;;21.60;99.90;;;;;;5094549;28;20032;-52
2021/01/28 02:14:09;;;;;;;30.48;27.70;;;21.50;99.90;;;;;;5093339;28;20024;-53
2021/01/28 02:16:46;;;;;;;33.60;30.75;;;21.50;99.90;;;;;;5094544;28;20453;-52
2021/01/28 02:19:40;;;;;;;33.83;30.98;;;21.60;99.90;;;;;;5094427;28;20020;-52
2021/01/28 02:22:08;;;;;;;30.63;27.77;;;21.70;99.90;;;;;;5094551;28;20047;-51
2021/01/28 02:24:52;;;;;;;31.75;29.10;;;21.80;99.90;;;;;;5094374;28;20048;-53
2021/01/28 02:27:21;;;;;;;29.73;27.15;;;21.80;99.90;;;;;;5094377;28;20050;-50
2021/01/28 02:29:50;;;;;;;27.88;25.35;;;21.90;99.90;;;;;;5094252;28;20392;-54
2021/01/28 02:32:17;;;;;;;30.63;28.20;;;22.10;99.90;;;;;;5094178;28;20028;-55
2021/01/28 02:34:45;;;;;;;25.13;22.92;;;22.20;99.90;;;;;;5094111;28;20476;-51
2021/01/28 02:37:19;;;;;;;27.67;24.98;;;22.20;99.90;;;;;;5094120;28;20062;-51
2021/01/28 02:39:46;;;;;;;24.15;22.27;;;22.20;99.90;;;;;;5093971;28;20044;-51
2021/01/28 02:42:20;;;;;;;28.08;25.67;;;22.30;99.90;;;;;;5094075;28;20495;-50
2021/01/28 02:44:47;;;;;;;28.65;26.40;;;22.40;99.90;;;;;;5093953;28;20025;-51
2021/01/28 02:47:15;;;;;;;23.95;21.90;;;22.60;99.90;;;;;;5093902;28;20024;-47
2021/01/28 02:49:42;;;;;;;23.60;21.60;;;22.60;99.90;;;;;;5093877;28;20032;-49
2021/01/28 02:52:10;;;;;;;24.23;21.83;;;22.50;99.90;;;;;;5093696;28;20388;-49
2021/01/28 02:54:44;;;;;;;22.77;20.80;;;22.50;99.90;;;;;;5093858;28;20024;-48
2021/01/28 02:57:12;;;;;;;21.77;18.80;;;22.60;99.90;;;;;;5093828;28;20062;-48
2021/01/28 02:59:40;;;;;;;25.83;23.52;;;22.70;99.90;;;;;;5093652;28;20040;-54
2021/01/28 03:02:14;;;;;;;24.67;22.58;;;22.80;99.90;;;;;;5093617;28;20081;-47
2021/01/28 03:04:41;;;;;;;24.25;22.13;;;22.70;99.90;;;;;;5093665;28;20099;-45
2021/01/28 03:07:11;;;;;;;28.45;26.27;;;22.70;99.90;;;;;;5093602;28;20552;-45
2021/01/28 03:09:39;;;;;;;28.17;25.55;;;22.60;99.90;;;;;;5093472;28;20103;-46
2021/01/28 03:12:09;;;;;;;26.83;24.27;;;22.60;99.90;;;;;;5092936;28;20024;-49
2021/01/28 03:14:37;;;;;;;24.48;22.25;;;22.60;99.90;;;;;;5093621;28;20040;-46
2021/01/28 03:17:05;;;;;;;26.00;23.55;;;22.50;99.90;;;;;;5093397;28;20058;-47
2021/01/28 03:19:33;;;;;;;28.85;26.25;;;22.40;99.90;;;;;;5093333;28;20460;-51
2021/01/28 03:22:00;;;;;;;25.83;23.77;;;22.50;99.90;;;;;;5093264;28;20056;-49
2021/01/28 03:24:27;;;;;;;25.77;23.38;;;22.70;99.90;;;;;;5093334;28;20048;-45
2021/01/28 03:26:54;;;;;;;23.13;20.70;;;22.90;99.90;;;;;;5093144;28;20028;-53
2021/01/28 03:29:22;;;;;;;27.20;24.40;;;23.00;99.90;;;;;;5093135;28;20429;-47
2021/01/28 03:31:49;;;;;;;23.30;20.00;;;23.10;99.90;;;;;;5093283;28;20094;-53
2021/01/28 03:34:17;;;;;;;24.65;22.00;;;23.10;99.90;;;;;;5093205;28;20020;-51
2021/01/28 03:36:44;;;;;;;24.48;22.17;;;22.90;99.90;;;;;;5093073;28;20074;-50
2021/01/28 03:39:12;;;;;;;27.80;24.85;;;22.90;99.90;;;;;;5093046;28;20028;-48
2021/01/28 03:41:39;;;;;;;23.60;21.20;;;22.80;99.90;;;;;;5092713;28;20048;-48
2021/01/28 03:44:07;;;;;;;25.15;23.05;;;22.70;99.90;;;;;;5093283;28;20020;-48
2021/01/28 03:46:34;;;;;;;27.38;24.98;;;22.60;99.90;;;;;;5091727;28;20024;-46
2021/01/28 03:49:02;;;;;;;26.73;24.60;;;22.40;99.90;;;;;;5093001;28;20024;-49
2021/01/28 03:51:29;;;;;;;33.97;30.45;;;22.40;99.90;;;;;;5092935;28;20027;-47
2021/01/28 03:53:56;;;;;;;31.70;28.98;;;22.50;99.90;;;;;;5093108;28;20029;-51
2021/01/28 03:56:24;;;;;;;33.88;31.15;;;22.40;99.90;;;;;;5092999;28;20111;-51
2021/01/28 03:58:51;;;;;;;39.10;35.80;;;22.30;99.90;;;;;;5092802;28;20062;-49
2021/01/28 04:01:19;;;;;;;39.45;35.97;;;22.20;99.90;;;;;;5092866;28;20034;-45
2021/01/28 04:03:46;;;;;;;39.92;37.05;;;21.90;99.90;;;;;;5092811;28;20093;-51
2021/01/28 04:06:14;;;;;;;44.22;41.00;;;21.80;99.90;;;;;;5092793;28;20024;-48
2021/01/28 04:08:42;;;;;;;42.08;39.13;;;21.80;99.90;;;;;;5092765;28;20095;-49
2021/01/28 04:11:09;;;;;;;44.65;40.97;;;21.80;99.90;;;;;;5092885;28;20032;-50
2021/01/28 04:13:36;;;;;;;42.80;39.85;;;21.80;99.90;;;;;;5092736;28;20084;-55
2021/01/28 04:16:04;;;;;;;42.55;39.38;;;21.70;99.90;;;;;;5092764;28;20111;-51
2021/01/28 04:18:31;;;;;;;42.03;39.03;;;21.80;99.90;;;;;;5092790;28;20027;-49
2021/01/28 04:20:58;;;;;;;42.90;39.83;;;21.70;99.90;;;;;;5092611;28;20028;-48
2021/01/28 04:23:26;;;;;;;42.65;39.83;;;21.60;99.90;;;;;;5094686;28;20073;-50
2021/01/28 04:25:53;;;;;;;44.42;41.42;;;21.50;99.90;;;;;;5096454;28;20012;-49
2021/01/28 04:28:20;;;;;;;40.67;37.97;;;21.50;99.90;;;;;;5096619;28;20027;-49
2021/01/28 04:30:48;;;;;;;39.33;36.53;;;21.50;99.90;;;;;;5096524;28;20016;-51
2021/01/28 04:33:15;;;;;;;40.53;37.53;;;21.50;99.90;;;;;;5096356;28;20039;-47
2021/01/28 04:35:42;;;;;;;38.92;36.30;;;21.60;99.90;;;;;;5096349;28;20024;-47
2021/01/28 04:38:10;;;;;;;40.65;38.00;;;21.70;99.90;;;;;;5096398;28;20024;-50
2021/01/28 04:40:39;;;;;;;40.45;37.75;;;21.80;99.90;;;;;;5096005;28;20043;-54
2021/01/28 04:43:28;;;;;;;37.95;35.33;;;21.80;99.90;;;;;;5096185;28;20044;-49
2021/01/28 04:46:00;;;;;;;39.85;37.33;;;21.90;99.90;;;;;;5096262;28;20023;-48
2021/01/28 04:48:28;;;;;;;40.58;37.92;;;21.90;99.90;;;;;;5096191;28;20024;-52
2021/01/28 04:51:01;;;;;;;43.15;40.25;;;21.80;99.90;;;;;;5096098;28;20107;-54
2021/01/28 04:53:40;;;;;;;45.22;41.88;;;21.60;99.90;;;;;;5096053;28;20020;-48
2021/01/28 04:56:17;;;;;;;43.30;40.13;;;21.60;99.90;;;;;;5096141;28;20426;-49
2021/01/28 04:58:45;;;;;;;41.63;38.60;;;21.60;99.90;;;;;;5095891;28;20491;-57
2021/01/28 05:01:12;;;;;;;41.78;38.20;;;21.90;99.90;;;;;;5095803;28;20035;-48
2021/01/28 05:03:48;;;;;;;39.65;36.70;;;22.00;99.90;;;;;;5095958;28;20473;-46
2021/01/28 05:06:16;;;;;;;36.38;33.22;;;22.20;99.90;;;;;;5095814;28;20424;-51
2021/01/28 05:08:44;;;;;;;36.08;33.10;;;22.20;99.90;;;;;;5095742;28;20024;-49
2021/01/28 05:11:49;;;;;;;35.15;31.58;;;22.30;99.90;;;;;;5095599;28;20056;-51
2021/01/28 05:14:34;;;;;;;30.73;28.27;;;22.50;99.90;;;;;;5086514;28;20100;-52
2021/01/28 05:17:06;;;;;;;31.15;10.95;;;22.50;99.90;;;;;;5095484;28;20416;-54
2021/01/28 05:19:50;;;;;;;15.57;6.45;;;22.50;99.90;;;;;;5095779;28;20036;-53
2021/01/28 05:22:30;;;;;;;15.43;6.40;;;22.70;99.90;;;;;;5095478;28;20028;-52
2021/01/28 05:25:30;;;;;;;15.23;6.05;;;22.90;99.90;;;;;;5095591;28;20478;-51
2021/01/28 05:27:58;;;;;;;14.70;5.63;;;22.90;99.90;;;;;;5095513;28;20048;-51
2021/01/28 05:30:40;;;;;;;14.50;6.13;;;22.90;99.90;;;;;;5095497;28;20043;-50
2021/01/28 05:33:41;;;;;;;10.85;6.55;;;23.10;99.90;;;;;;5095396;28;20020;-52
2021/01/28 05:36:17;;;;;;;13.75;5.20;;;23.10;99.90;;;;;;5095529;28;20469;-52
2021/01/28 05:38:48;;;;;;;12.77;6.68;;;23.00;99.90;;;;;;5095629;28;20435;-53
2021/01/28 05:41:47;;;;;;;12.85;7.15;;;22.90;99.90;;;;;;5094975;28;20086;-53
2021/01/28 05:44:31;;;;;;;12.50;6.53;;;22.70;99.90;;;;;;5095212;28;20031;-53
2021/01/28 05:47:08;;;;;;;18.33;7.00;;;22.50;99.90;;;;;;5095031;28;20495;-51
2021/01/28 05:49:41;;;;;;;14.25;6.70;;;22.40;99.90;;;;;;5095032;28;20016;-54
2021/01/28 05:52:29;;;;;;;13.70;6.85;;;22.30;99.90;;;;;;5094971;28;20030;-53
2021/01/28 05:55:13;;;;;;;19.77;8.93;;;22.00;99.90;;;;;;5093417;28;20036;-55
2021/01/28 05:57:54;;;;;;;17.10;8.35;;;21.90;99.90;;;;;;5094978;28;20024;-52
2021/01/28 06:00:25;;;;;;;11.75;7.10;;;21.90;99.90;;;;;;5095002;28;20032;-53
2021/01/28 06:03:00;;;;;;;13.93;7.82;;;21.80;99.90;;;;;;5094814;28;20031;-50
2021/01/28 06:05:42;;;;;;;17.05;8.23;;;21.80;99.90;;;;;;5094719;28;20023;-53
2021/01/28 06:08:29;;;;;;;17.90;7.00;;;21.80;99.90;;;;;;5094819;28;20016;-50
2021/01/28 06:11:17;;;;;;;17.52;8.63;;;21.80;99.90;;;;;;5094634;28;20046;-51
2021/01/28 06:13:59;;;;;;;14.15;7.00;;;21.80;99.90;;;;;;5094666;28;20024;-53
2021/01/28 06:16:52;;;;;;;18.83;7.78;;;21.80;99.90;;;;;;5094499;28;20027;-50
2021/01/28 06:19:43;;;;;;;17.23;8.13;;;21.70;99.90;;;;;;5094633;28;20023;-53
2021/01/28 06:22:31;;;;;;;14.40;7.25;;;21.60;99.90;;;;;;5093171;28;20053;-51
2021/01/28 06:25:24;;;;;;;19.80;8.10;;;21.60;99.90;;;;;;5094624;28;20384;-50
2021/01/28 06:28:13;;;;;;;20.20;8.93;;;21.50;99.90;;;;;;5094407;28;20043;-49
2021/01/28 06:30:53;;;;;;;20.65;8.13;;;21.50;99.90;;;;;;5094399;28;20507;-54
2021/01/28 06:34:08;;;;;;;14.38;7.97;;;21.40;99.90;;;;;;5094463;28;20388;-54
2021/01/28 06:36:55;;;;;;;18.92;8.27;;;21.30;99.90;;;;;;5049655;28;20511;-54
2021/01/28 06:39:29;;;;;;;21.00;8.23;;;21.10;99.90;;;;;;5094296;28;20048;-56
2021/01/28 06:42:19;;;;;;;21.85;10.35;;;21.10;99.90;;;;;;5094197;28;20027;-51
2021/01/28 06:44:59;;;;;;;21.38;7.93;;;21.00;99.90;;;;;;5086021;28;20032;-53
2021/01/28 06:47:44;;;;;;;17.52;7.63;;;20.90;99.90;;;;;;5093660;28;20074;-48
2021/01/28 06:50:18;;;;;;;20.35;8.80;;;20.90;99.90;;;;;;5094026;28;20411;-53
2021/01/28 06:53:21;;;;;;;20.92;8.48;;;20.80;99.90;;;;;;5093957;28;20051;-54
2021/01/28 06:56:11;;;;;;;19.88;8.40;;;20.80;99.90;;;;;;5093846;28;20012;-54
2021/01/28 06:58:56;;;;;;;21.73;8.60;;;20.70;99.90;;;;;;5093864;28;20024;-53
2021/01/28 07:01:32;;;;;;;18.08;9.48;;;20.60;99.90;;;;;;5093704;28;20024;-53
2021/01/28 07:04:24;;;;;;;13.55;8.23;;;20.60;99.90;;;;;;5093663;28;20024;-54
2021/01/28 07:07:16;;;;;;;15.05;7.85;;;20.60;99.90;;;;;;5093796;28;20023;-53
2021/01/28 07:09:55;;;;;;;18.17;7.22;;;20.40;99.90;;;;;;5093701;28;20020;-53
2021/01/28 07:12:57;;;;;;;15.85;8.35;;;20.40;99.90;;;;;;5093716;28;20058;-53
2021/01/28 07:15:27;;;;;;;13.48;8.60;;;20.50;99.90;;;;;;5089749;28;20559;-53
2021/01/28 07:18:06;;;;;;;14.20;8.15;;;20.40;99.90;;;;;;5093461;28;20054;-54
2021/01/28 07:20:55;;;;;;;14.50;9.02;;;20.40;99.90;;;;;;5093390;28;20366;-53
2021/01/28 07:23:31;;;;;;;10.38;7.88;;;20.40;99.90;;;;;;5079266;28;20100;-53
2021/01/28 07:26:11;;;;;;;10.75;7.22;;;20.50;99.90;;;;;;5093315;28;20069;-52
2021/01/28 07:28:40;;;;;;;11.48;7.07;;;20.60;99.90;;;;;;5093457;28;20020;-53
2021/01/28 07:31:07;;;;;;;10.50;8.23;;;20.60;99.90;;;;;;5093811;28;20031;-51
2021/01/28 07:33:34;;;;;;;14.02;8.77;;;20.60;99.90;;;;;;5093401;28;20099;-50
2021/01/28 07:36:12;;;;;;;14.90;8.50;;;20.60;99.90;;;;;;5093257;28;20027;-53
2021/01/28 07:38:53;;;;;;;18.80;9.40;;;20.40;99.90;;;;;;5093372;28;20453;-54
2021/01/28 07:41:48;;;;;;;16.80;9.80;;;20.30;99.90;;;;;;5092957;28;20063;-53
2021/01/28 07:44:25;;;;;;;14.57;9.18;;;20.30;99.90;;;;;;5082728;28;20028;-51
2021/01/28 07:46:58;;;;;;;17.58;10.02;;;20.20;99.90;;;;;;5093210;28;20100;-51
2021/01/28 07:49:31;;;;;;;15.57;9.75;;;20.10;99.90;;;;;;5093078;28;20098;-49
2021/01/28 07:52:16;;;;;;;19.25;10.73;;;20.10;99.90;;;;;;5093221;28;20070;-49
2021/01/28 07:54:51;;;;;;;20.13;11.18;;;20.00;99.90;;;;;;5093717;28;20472;-49
2021/01/28 07:57:42;;;;;;;18.10;10.77;;;19.90;99.90;;;;;;5095013;28;20186;-52
2021/01/28 08:00:13;;;;;;;14.82;10.20;;;19.80;99.90;;;;;;5096204;28;20024;-52
2021/01/28 08:02:42;;;;;;;21.13;10.52;;;19.70;99.90;;;;;;5097283;28;20063;-55
2021/01/28 08:05:19;;;;;;;20.05;11.48;;;19.60;99.90;;;;;;5097202;28;20031;-52
2021/01/28 08:08:17;;;;;;;17.83;9.65;;;19.60;99.90;;;;;;5097105;28;20024;-52
2021/01/28 08:10:46;;;;;;;20.98;9.98;;;19.50;99.90;;;;;;5080195;28;20060;-51
2021/01/28 08:13:30;;;;;;;21.65;10.43;;;19.50;99.90;;;;;;5097563;28;20052;-53
2021/01/28 08:16:11;;;;;;;20.00;9.25;;;19.40;99.90;;;;;;5097039;28;20027;-51
2021/01/28 08:18:42;;;;;;;19.10;10.43;;;19.40;99.90;;;;;;5097138;28;20107;-54
2021/01/28 08:21:13;;;;;;;17.10;10.15;;;19.40;99.90;;;;;;5097039;28;20376;-53
2021/01/28 08:23:44;;;;;;;19.60;10.23;;;19.30;99.90;;;;;;5097017;28;20484;-54
2021/01/28 08:26:38;;;;;;;18.63;9.20;;;19.30;99.90;;;;;;5097033;28;20035;-51
2021/01/28 08:29:17;;;;;;;22.02;10.18;;;19.40;99.90;;;;;;5096755;28;20023;-51
2021/01/28 08:31:47;;;;;;;20.60;9.73;;;19.40;99.90;;;;;;5096702;28;20081;-53
2021/01/28 08:34:21;;;;;;;;;;;19.40;99.90;;;;;;5097164;28;20020;-53
2021/01/28 08:37:10;;;;;;;20.83;8.88;;;19.40;99.90;;;;;;5096886;28;19930;-53
2021/01/28 08:39:38;;;;;;;16.80;8.27;;;19.40;99.90;;;;;;5096464;28;20032;-53
2021/01/28 08:42:12;;;;;;;13.60;8.90;;;19.40;99.90;;;;;;5096447;28;20055;-54
2021/01/28 08:44:43;;;;;;;16.70;8.88;;;19.40;99.90;;;;;;5096491;28;20437;-55
2021/01/28 08:47:20;;;;;;;15.93;8.50;;;19.40;99.90;;;;;;5096568;28;20016;-55
2021/01/28 08:50:00;;;;;;;16.33;8.90;;;19.50;99.90;;;;;;5096496;28;20028;-52
2021/01/28 08:52:28;;;;;;;17.92;8.48;;;19.60;99.90;;;;;;5096535;28;20032;-55
2021/01/28 08:54:56;;;;;;;15.55;8.25;;;19.50;99.90;;;;;;5096289;28;20024;-54
2021/01/28 08:57:25;;;;;;;16.55;8.05;;;19.50;99.90;;;;;;5096187;28;20111;-55
2021/01/28 09:00:01;;;;;;;15.00;9.13;;;19.60;99.90;;;;;;5096246;28;20048;-55
2021/01/28 09:02:35;;;;;;;14.30;8.25;;;19.60;99.90;;;;;;5096191;28;20437;-53
2021/01/28 09:05:09;;;;;;;17.92;8.77;;;19.60;99.90;;;;;;5096131;28;20487;-56
2021/01/28 09:07:51;;;;;;;19.85;9.98;;;19.60;99.90;;;;;;5095968;28;20091;-57
2021/01/28 09:10:40;;;;;;;17.58;9.10;;;19.60;99.90;;;;;;5095236;28;20103;-56
2021/01/28 09:13:19;;;;;;;14.23;8.98;;;19.50;99.90;;;;;;5095744;28;20586;-56
2021/01/28 09:15:48;;;;;;;15.38;8.38;;;19.50;99.90;;;;;;5095764;28;20023;-55
2021/01/28 09:18:37;;;;;;;19.88;10.02;;;19.60;99.90;;;;;;5095677;28;20099;-56
2021/01/28 09:21:17;;;;;;;12.85;8.60;;;19.50;99.90;;;;;;5095534;28;20035;-55
2021/01/28 09:24:04;;;;;;;17.00;9.25;;;19.60;99.90;;;;;;5095565;28;20020;-56
2021/01/28 09:26:35;;;;;;;17.98;10.38;;;19.60;99.90;;;;;;5095394;28;20032;-57
2021/01/28 09:29:33;;;;;;;16.60;9.82;;;19.50;99.90;;;;;;5095931;28;20065;-55
2021/01/28 09:32:08;;;;;;;20.90;8.63;;;19.50;99.90;;;;;;5079492;28;20036;-52
2021/01/28 09:34:36;;;;;;;21.13;10.02;;;19.50;99.90;;;;;;5095451;28;20024;-55
2021/01/28 09:37:07;;;;;;;15.90;9.63;;;19.40;99.90;;;;;;5095351;28;20028;-55
2021/01/28 09:39:55;;;;;;;17.25;9.50;;;19.50;99.90;;;;;;5095284;28;20020;-55
2021/01/28 09:42:28;;;;;;;13.63;9.13;;;19.50;99.90;;;;;;5095196;28;20039;-55
2021/01/28 09:45:26;;;;;;;16.17;9.52;;;19.40;99.90;;;;;;5095580;28;20493;-57
2021/01/28 09:47:55;;;;;;;19.75;10.65;;;19.30;99.90;;;;;;5087685;28;20111;-57
2021/01/28 09:50:24;;;;;;;35.97;31.73;;;19.30;99.90;;;;;;5095235;28;20028;-56
2021/01/28 09:52:52;;;;;;;57.20;48.08;;;19.40;99.90;;;;;;5095107;28;20020;-55
2021/01/28 09:55:22;;;;;;;62.80;56.03;;;19.30;99.90;;;;;;5095024;28;20020;-56
2021/01/28 09:57:51;;;;;;;61.58;55.00;;;19.30;99.90;;;;;;5095083;28;20020;-57
2021/01/28 10:00:21;;;;;;;38.13;32.95;;;19.40;99.90;;;;;;5095148;28;20146;-57
2021/01/28 10:02:58;;;;;;;37.50;30.03;;;19.30;99.90;;;;;;5094933;28;20027;-57
2021/01/28 10:05:29;;;;;;;32.42;23.25;;;19.20;99.90;;;;;;5095130;28;20097;-56
2021/01/28 10:07:57;;;;;;;28.20;18.80;;;19.20;99.90;;;;;;5094904;28;20431;-56
2021/01/28 10:10:28;;;;;;;27.38;16.95;;;19.10;99.90;;;;;;5094752;28;20016;-56
2021/01/28 10:13:02;;;;;;;25.77;15.73;;;19.20;99.90;;;;;;5094549;28;20091;-55
2021/01/28 10:15:30;;;;;;;18.60;12.27;;;19.20;99.90;;;;;;5094699;28;20066;-55
2021/01/28 10:17:59;;;;;;;23.70;13.38;;;19.20;99.90;;;;;;5094481;28;20473;-57
2021/01/28 10:20:27;;;;;;;18.98;11.63;;;19.20;99.90;;;;;;5093342;28;20024;-57
2021/01/28 10:22:57;;;;;;;21.67;10.40;;;19.20;99.90;;;;;;5094513;28;20020;-55
2021/01/28 10:25:25;;;;;;;21.52;12.50;;;19.20;99.90;;;;;;5093525;28;20380;-55
2021/01/28 10:27:53;;;;;;;22.02;12.32;;;19.30;99.90;;;;;;5094440;28;20028;-56
2021/01/28 10:30:22;;;;;;;24.17;11.52;;;19.30;99.90;;;;;;5094393;28;20464;-57
2021/01/28 10:32:51;;;;;;;22.02;11.25;;;19.30;99.90;;;;;;5094399;28;20362;-57
2021/01/28 10:35:24;;;;;;;24.55;11.40;;;19.30;99.90;;;;;;5094458;28;20447;-56
2021/01/28 10:37:52;;;;;;;20.13;11.48;;;19.40;99.90;;;;;;5094392;28;20023;-54
2021/01/28 10:40:20;;;;;;;22.55;11.20;;;19.40;99.90;;;;;;5094080;28;20500;-57
2021/01/28 10:42:48;;;;;;;22.02;10.20;;;19.40;99.90;;;;;;5094288;28;20103;-55
2021/01/28 10:45:20;;;;;;;18.17;9.60;;;19.40;99.90;;;;;;5094309;28;20032;-57
2021/01/28 10:47:48;;;;;;;17.00;9.38;;;19.40;99.90;;;;;;5094282;28;20099;-57
2021/01/28 10:50:16;;;;;;;16.23;9.30;;;19.40;99.90;;;;;;5094192;28;20016;-58
2021/01/28 10:52:43;;;;;;;21.38;9.23;;;19.40;99.90;;;;;;5094206;28;20477;-57
2021/01/28 10:55:11;;;;;;;18.48;10.15;;;19.30;99.90;;;;;;5094069;28;20051;-56
2021/01/28 10:57:38;;;;;;;26.48;10.70;;;19.40;99.90;;;;;;5094068;28;20107;-56
2021/01/28 11:00:06;;;;;;;22.67;10.45;;;19.30;99.90;;;;;;5093997;28;20020;-57
2021/01/28 11:02:34;;;;;;;14.60;10.30;;;19.40;99.90;;;;;;5093809;28;20085;-57
2021/01/28 11:05:01;;;;;;;17.15;9.90;;;19.40;99.90;;;;;;5093892;28;20032;-57
2021/01/28 11:07:28;;;;;;;19.45;10.30;;;19.40;99.90;;;;;;5093762;28;20077;-57
2021/01/28 11:09:57;;;;;;;16.88;8.80;;;19.30;99.90;;;;;;5093748;28;20020;-55
2021/01/28 11:12:25;;;;;;;15.52;10.18;;;19.40;99.90;;;;;;5093650;28;20024;-54
2021/01/28 11:14:52;;;;;;;17.08;10.45;;;19.40;99.90;;;;;;5093662;28;20383;-55
2021/01/28 11:17:20;;;;;;;18.05;9.35;;;19.40;99.90;;;;;;5093908;28;20024;-55
2021/01/28 11:19:47;;;;;;;16.30;8.60;;;19.40;99.90;;;;;;5093688;28;20031;-56
2021/01/28 11:22:14;;;;;;;15.93;8.52;;;19.30;99.90;;;;;;5093545;28;20028;-54
2021/01/28 11:24:41;;;;;;;14.90;9.68;;;19.30;99.90;;;;;;5093619;28;20020;-56
2021/01/28 11:27:09;;;;;;;11.95;8.50;;;19.30;99.90;;;;;;5092069;28;20024;-55
2021/01/28 11:29:36;;;;;;;17.35;8.45;;;19.30;99.90;;;;;;5093391;28;20069;-53
2021/01/28 11:32:04;;;;;;;16.00;9.02;;;19.30;99.90;;;;;;5093238;28;20036;-53
2021/01/28 11:34:31;;;;;;;17.73;9.27;;;19.30;99.90;;;;;;5093437;28;20031;-55
2021/01/28 11:36:58;;;;;;;13.18;8.48;;;19.30;99.90;;;;;;5093344;28;20024;-53
2021/01/28 11:39:25;;;;;;;17.83;8.05;;;19.30;99.90;;;;;;5093296;28;20048;-53
2021/01/28 11:41:55;;;;;;;18.38;9.25;;;19.30;99.90;;;;;;5093247;28;20044;-56
2021/01/28 11:44:22;;;;;;;19.90;9.50;;;19.30;99.90;;;;;;5093386;28;20083;-55
2021/01/28 11:46:50;;;;;;;15.93;9.75;;;19.30;99.90;;;;;;5093336;28;20091;-56
2021/01/28 11:49:17;;;;;;;16.05;8.43;;;19.30;99.90;;;;;;5093270;28;20024;-56
2021/01/28 11:51:44;;;;;;;15.65;9.02;;;19.40;99.90;;;;;;5093248;28;20078;-55
2021/01/28 11:54:11;;;;;;;17.08;9.27;;;19.40;99.90;;;;;;5093130;28;20028;-56
2021/01/28 11:56:39;;;;;;;17.25;9.30;;;19.30;99.90;;;;;;5093134;28;20081;-56
2021/01/28 11:59:06;;;;;;;22.33;9.88;;;19.40;99.90;;;;;;5093124;28;20054;-57
2021/01/28 12:01:33;;;;;;;22.50;9.80;;;19.50;99.90;;;;;;5093238;28;20473;-53
2021/01/28 12:04:01;;;;;;;19.90;10.27;;;19.50;99.90;;;;;;5093183;28;20523;-52
2021/01/28 12:06:28;;;;;;;18.27;9.50;;;19.50;99.90;;;;;;5093071;28;20357;-54
2021/01/28 12:08:55;;;;;;;23.70;9.90;;;19.50;99.90;;;;;;5093240;28;20024;-56
2021/01/28 12:11:23;;;;;;;22.00;8.52;;;19.50;99.90;;;;;;5093146;28;20445;-52
2021/01/28 12:13:51;;;;;;;21.95;9.30;;;19.50;99.90;;;;;;5093152;28;20107;-51
2021/01/28 12:16:18;;;;;;;20.63;9.20;;;19.60;99.90;;;;;;5093040;28;20077;-50
2021/01/28 12:18:45;;;;;;;16.90;8.57;;;19.60;99.90;;;;;;5093008;28;20386;-55
2021/01/28 12:21:13;;;;;;;17.55;8.55;;;19.60;99.90;;;;;;5092907;28;20027;-57
2021/01/28 12:23:40;;;;;;;18.13;9.30;;;19.60;99.90;;;;;;5093075;28;20012;-56
2021/01/28 12:26:07;;;;;;;17.13;9.05;;;19.60;99.90;;;;;;5092826;28;20031;-55
2021/01/28 12:28:35;;;;;;;22.70;9.10;;;19.50;99.90;;;;;;5092962;28;20016;-54
2021/01/28 12:31:02;;;;;;;21.73;9.00;;;19.60;99.90;;;;;;5092919;28;20067;-55
2021/01/28 12:33:30;;;;;;;17.60;8.07;;;19.60;99.90;;;;;;5092972;28;20111;-56
2021/01/28 12:35:57;;;;;;;24.42;9.52;;;19.60;99.90;;;;;;5092806;28;20117;-54
2021/01/28 12:38:25;;;;;;;19.15;9.23;;;19.60;99.90;;;;;;5092826;28;20016;-58
2021/01/28 12:40:52;;;;;;;16.58;9.15;;;19.60;99.90;;;;;;5092558;28;20052;-56
2021/01/28 12:43:19;;;;;;;22.00;8.77;;;19.60;99.90;;;;;;5092924;28;20094;-55
2021/01/28 12:45:46;;;;;;;20.30;9.43;;;19.60;99.90;;;;;;5096585;28;20092;-56
2021/01/28 12:48:14;;;;;;;21.45;8.85;;;19.60;99.90;;;;;;5096724;28;20069;-55
2021/01/28 12:50:41;;;;;;;20.73;9.45;;;19.60;99.90;;;;;;5096497;28;20159;-54
2021/01/28 12:53:08;;;;;;;17.15;8.68;;;19.60;99.90;;;;;;5096402;28;20027;-56
2021/01/28 12:55:36;;;;;;;19.05;8.68;;;19.60;99.90;;;;;;5096319;28;20024;-56
2021/01/28 12:58:03;;;;;;;15.73;8.43;;;19.60;99.90;;;;;;5096279;28;20020;-56
2021/01/28 13:00:31;;;;;;;14.20;8.38;;;19.60;99.90;;;;;;5096211;28;20020;-56
2021/01/28 13:02:58;;;;;;;18.83;8.35;;;19.60;99.90;;;;;;5096459;28;20095;-53